Guerrant, Kentucky
Current Conditions -  °F | °C
As of 7:53 PM on Sunday 23 Nov 2014 (Local Time) from KJKL Reporting Station
Broken Clouds Broken Clouds  
Wind Chill: 58°   Ceiling: 10000
Heat Index: 58°   Visibility: 10mi
Dew Point: 52°   Wind: 10mph
Humidity: 81%   Direction: 140°SE
Pressure: 29.51"   Gusts: 20mph
Location:  37.532°N, 83.3068°W
Report Text: KJKL 240053Z AUTO 14009G17KT 10SM BKN100 14/11 A2951 RMK AO2 RAE49 SLP987 P0001 T01440111
Loading
Personal Weather Stations






























Interactive Weather Map New forecast layout! Learn more

10-Day Weather Forecast

Advertisements
Track Severe Weather on mobile